createdAt,value
2018-11-28T00:00:39.147Z,99052.88
2018-11-28T00:03:08.196Z,99052.08
2018-11-28T00:05:55.769Z,99046.00
2018-11-28T00:08:43.031Z,99051.16
2018-11-28T00:14:27.077Z,99038.61
2018-11-28T00:16:54.692Z,99035.97
2018-11-28T00:19:22.361Z,99038.48
2018-11-28T00:21:49.995Z,99031.13
2018-11-28T00:24:17.744Z,99022.00
2018-11-28T00:26:45.249Z,99024.64
2018-11-28T00:29:12.871Z,99022.41
2018-11-28T00:31:40.444Z,99020.63
2018-11-28T00:34:08.103Z,99028.52
2018-11-28T00:36:35.660Z,99032.02
2018-11-28T00:39:03.858Z,99033.27
2018-11-28T00:41:31.473Z,99034.58
2018-11-28T00:43:59.145Z,99036.30
2018-11-28T00:46:26.805Z,99033.31
2018-11-28T00:48:54.540Z,99038.16
2018-11-28T00:51:22.246Z,99038.13
2018-11-28T00:53:49.820Z,99038.61
2018-11-28T00:56:17.452Z,99047.72
2018-11-28T00:58:44.965Z,99046.94
2018-11-28T01:01:12.597Z,99044.31
2018-11-28T01:03:40.125Z,99039.02
2018-11-28T01:06:07.658Z,99044.31
2018-11-28T01:08:35.225Z,99040.80
2018-11-28T01:11:02.808Z,99043.92
2018-11-28T01:13:30.529Z,99038.69
2018-11-28T01:15:58.061Z,99044.35
2018-11-28T01:18:25.587Z,99036.92
2018-11-28T01:20:53.146Z,99045.63
2018-11-28T01:23:20.719Z,99045.16
2018-11-28T01:25:48.291Z,99041.63
2018-11-28T01:28:15.991Z,99045.14
2018-11-28T01:30:43.533Z,99045.49
2018-11-28T01:33:11.092Z,99050.29
2018-11-28T01:35:38.637Z,99051.57
2018-11-28T01:38:06.165Z,99045.41
2018-11-28T01:40:33.736Z,99044.10
2018-11-28T01:43:01.722Z,99042.74
2018-11-28T01:45:29.282Z,99045.75
2018-11-28T01:47:56.813Z,99045.29
2018-11-28T01:50:24.437Z,99041.73
2018-11-28T01:52:52.060Z,99038.24
2018-11-28T01:55:20.689Z,99035.09
2018-11-28T01:57:48.316Z,99033.27
2018-11-28T02:00:16.639Z,99038.04
2018-11-28T02:02:44.235Z,99028.81
2018-11-28T02:05:12.347Z,99028.70
2018-11-28T02:07:40.023Z,99033.98
2018-11-28T02:10:12.237Z,99028.61
2018-11-28T02:12:40.035Z,99032.16
2018-11-28T02:15:09.201Z,99033.00
2018-11-28T02:17:36.821Z,99026.44
2018-11-28T02:20:05.367Z,99030.30
2018-11-28T02:22:33.115Z,99031.11
2018-11-28T02:25:00.694Z,99030.23
2018-11-28T02:27:28.312Z,99036.33
2018-11-28T02:29:55.928Z,99028.94
2018-11-28T02:32:23.497Z,99032.82
2018-11-28T02:34:51.044Z,99030.67
2018-11-28T02:37:18.633Z,99031.98
2018-11-28T02:39:46.253Z,99038.97
2018-11-28T02:42:13.790Z,99040.66
2018-11-28T02:44:41.898Z,99038.78
2018-11-28T02:47:09.432Z,99040.66
2018-11-28T02:49:37.109Z,99040.59
2018-11-28T02:52:05.103Z,99036.67
2018-11-28T02:54:32.725Z,99039.78
2018-11-28T02:57:00.392Z,99033.31
2018-11-28T02:59:27.978Z,99031.95
2018-11-28T03:01:55.609Z,99034.13
2018-11-28T03:04:23.167Z,99032.38
2018-11-28T03:06:50.950Z,99033.16
2018-11-28T03:09:18.607Z,99032.91
2018-11-28T03:11:46.176Z,99030.27
2018-11-28T03:14:13.753Z,99030.73
2018-11-28T03:16:41.291Z,99035.95
2018-11-28T03:19:08.978Z,99031.95
2018-11-28T03:21:36.604Z,99035.52
2018-11-28T03:24:04.190Z,99033.00
2018-11-28T03:26:31.848Z,99029.43
2018-11-28T03:28:59.517Z,99037.23
2018-11-28T03:31:27.043Z,99041.67
2018-11-28T03:33:54.555Z,99041.20
2018-11-28T03:36:22.134Z,99035.58
2018-11-28T03:38:49.678Z,99041.55
2018-11-28T03:41:17.264Z,99037.38
2018-11-28T03:43:44.855Z,99039.99
2018-11-28T03:46:12.481Z,99037.44
2018-11-28T03:48:40.194Z,99041.82
2018-11-28T03:51:07.829Z,99036.53
2018-11-28T03:53:35.518Z,99039.13
2018-11-28T03:56:03.170Z,99046.55
2018-11-28T03:58:30.740Z,99038.22
2018-11-28T04:00:58.286Z,99038.16
2018-11-28T04:03:25.814Z,99042.48
2018-11-28T04:05:53.605Z,99038.16
2018-11-28T04:08:21.272Z,99040.63
2018-11-28T04:10:48.775Z,99043.70
2018-11-28T04:13:16.311Z,99042.83
2018-11-28T04:15:43.927Z,99044.13
2018-11-28T04:18:11.534Z,99038.78
2018-11-28T04:20:39.131Z,99040.42
2018-11-28T04:23:06.722Z,99044.68
2018-11-28T04:25:34.788Z,99042.84
2018-11-28T04:28:02.404Z,99043.64
2018-11-28T04:30:29.967Z,99045.67
2018-11-28T04:32:57.770Z,99039.94
2018-11-28T04:35:25.397Z,99040.27
2018-11-28T04:37:52.974Z,99044.62
2018-11-28T04:40:21.214Z,99040.48
2018-11-28T04:42:49.039Z,99042.17
2018-11-28T04:45:17.319Z,99051.69
2018-11-28T04:47:44.906Z,99046.88
2018-11-28T04:50:12.777Z,99051.73
2018-11-28T04:52:40.311Z,99048.58
2018-11-28T04:55:11.461Z,99043.25
2018-11-28T04:57:39.142Z,99039.59
2018-11-28T05:00:12.443Z,99046.80
2018-11-28T05:02:39.992Z,99045.83
2018-11-28T05:05:08.037Z,99047.62
2018-11-28T05:07:35.641Z,99046.22
2018-11-28T05:10:03.782Z,99040.34
2018-11-28T05:12:31.645Z,99040.08
2018-11-28T05:14:59.466Z,99040.78
2018-11-28T05:17:27.067Z,99041.52
2018-11-28T05:19:54.609Z,99041.47
2018-11-28T05:22:22.332Z,99046.81
2018-11-28T05:24:50.162Z,99042.03
2018-11-28T05:27:17.856Z,99037.12
2018-11-28T05:29:45.385Z,99037.61
2018-11-28T05:32:13.081Z,99038.52
2018-11-28T05:34:40.840Z,99044.07
2018-11-28T05:37:08.541Z,99048.42
2018-11-28T05:39:36.252Z,99046.77
2018-11-28T05:42:03.790Z,99051.71
2018-11-28T05:44:31.334Z,99058.75
2018-11-28T05:46:58.910Z,99059.53
2018-11-28T05:49:26.561Z,99057.27
2018-11-28T05:51:54.140Z,99056.39
2018-11-28T05:54:21.745Z,99057.79
2018-11-28T05:56:49.340Z,99060.78
2018-11-28T05:59:16.933Z,99060.26
2018-11-28T06:01:44.536Z,99065.77
2018-11-28T06:04:12.054Z,99068.71
2018-11-28T06:06:39.646Z,99070.15
2018-11-28T06:09:08.196Z,99081.88
2018-11-28T06:11:36.170Z,99080.05
2018-11-28T06:14:03.712Z,99090.03
2018-11-28T06:16:31.437Z,99091.77
2018-11-28T06:18:59.108Z,99098.95
2018-11-28T06:21:26.779Z,99100.58
2018-11-28T06:23:54.386Z,99098.41
2018-11-28T06:26:21.935Z,99096.67
2018-11-28T06:28:49.883Z,99099.77
2018-11-28T06:31:17.121Z,99091.08
2018-11-28T06:33:44.763Z,99086.41
2018-11-28T06:36:12.324Z,99084.29
2018-11-28T06:38:39.937Z,99078.16
2018-11-28T06:41:07.546Z,99080.81
2018-11-28T06:43:35.146Z,99087.66
2018-11-28T06:46:02.742Z,99094.98
2018-11-28T06:48:30.239Z,99098.40
2018-11-28T06:50:57.969Z,99098.08
2018-11-28T06:53:25.534Z,99099.72
2018-11-28T06:55:53.107Z,99100.03
2018-11-28T06:58:20.665Z,99102.69
2018-11-28T07:00:48.341Z,99102.16
2018-11-28T07:03:15.950Z,99106.55
2018-11-28T07:05:43.636Z,99104.87
2018-11-28T07:08:11.219Z,99113.98
2018-11-28T07:10:38.746Z,99116.80
2018-11-28T07:13:06.349Z,99123.19
2018-11-28T07:15:33.990Z,99127.69
2018-11-28T07:18:07.179Z,99125.34
2018-11-28T07:20:34.720Z,99130.97
2018-11-28T07:23:02.293Z,99136.44
2018-11-28T07:25:29.882Z,99134.89
2018-11-28T07:27:57.459Z,99133.34
2018-11-28T07:30:25.093Z,99137.11
2018-11-28T07:32:53.492Z,99137.64
2018-11-28T07:35:21.076Z,99139.09
2018-11-28T07:37:48.720Z,99137.07
2018-11-28T07:40:16.891Z,99139.22
2018-11-28T07:43:00.354Z,99139.75
2018-11-28T07:45:27.985Z,99140.09
2018-11-28T07:47:55.522Z,99138.92
2018-11-28T07:50:23.085Z,99132.66
2018-11-28T07:52:50.633Z,99141.52
2018-11-28T07:55:18.174Z,99141.44
2018-11-28T07:57:45.766Z,99146.70
2018-11-28T08:00:14.221Z,99141.60
2018-11-28T08:02:42.015Z,99133.22
2018-11-28T08:05:10.123Z,99139.83
2018-11-28T08:07:37.687Z,99140.94
2018-11-28T08:10:06.413Z,99143.55
2018-11-28T08:12:33.935Z,99144.92
2018-11-28T08:15:01.490Z,99138.91
2018-11-28T08:17:29.968Z,99147.95
2018-11-28T08:19:56.977Z,99141.44
2018-11-28T08:22:24.635Z,99146.82
2018-11-28T08:24:52.336Z,99156.91
2018-11-28T08:27:19.857Z,99159.12
2018-11-28T08:29:47.409Z,99163.23
2018-11-28T08:32:15.118Z,99163.79
2018-11-28T08:34:42.854Z,99174.34
2018-11-28T08:37:10.472Z,99171.38
2018-11-28T08:39:38.055Z,99176.67
2018-11-28T08:42:05.960Z,99182.09
2018-11-28T08:44:33.581Z,99182.95
2018-11-28T08:47:01.154Z,99170.72
2018-11-28T08:49:28.793Z,99176.38
2018-11-28T08:51:56.366Z,99171.72
2018-11-28T08:54:23.948Z,99177.34
2018-11-28T08:56:51.639Z,99188.00
2018-11-28T08:59:19.262Z,99189.42
2018-11-28T09:01:46.928Z,99186.88
2018-11-28T09:04:14.466Z,99191.46
2018-11-28T09:06:42.039Z,99186.94
2018-11-28T09:09:09.645Z,99189.16
2018-11-28T09:11:37.182Z,99187.06
2018-11-28T09:14:04.921Z,99184.50
2018-11-28T09:16:32.470Z,99182.81
2018-11-28T09:19:00.056Z,99187.91
2018-11-28T09:21:27.581Z,99190.63
2018-11-28T09:23:55.118Z,99195.42
2018-11-28T09:26:22.949Z,99186.29
2018-11-28T09:28:50.681Z,99194.16
2018-11-28T09:31:18.446Z,99190.34
2018-11-28T09:33:46.114Z,99187.34
2018-11-28T09:36:13.666Z,99180.27
2018-11-28T09:38:41.297Z,99182.92
2018-11-28T09:41:08.865Z,99179.44
2018-11-28T09:43:37.383Z,99178.94
2018-11-28T09:46:05.045Z,99188.63
2018-11-28T09:48:32.591Z,99193.06
2018-11-28T09:51:00.152Z,99194.84
2018-11-28T09:53:27.678Z,99201.00
2018-11-28T09:55:55.201Z,99202.36
2018-11-28T09:58:22.845Z,99195.48
2018-11-28T10:00:50.399Z,99187.99
2018-11-28T10:03:17.938Z,99191.97
2018-11-28T10:05:45.617Z,99190.23
2018-11-28T10:08:13.470Z,99182.38
2018-11-28T10:10:41.021Z,99185.47
2018-11-28T10:13:08.590Z,99182.83
2018-11-28T10:15:36.100Z,99179.76
2018-11-28T10:18:03.653Z,99174.12
2018-11-28T10:20:31.855Z,99180.22
2018-11-28T10:22:59.455Z,99178.06
2018-11-28T10:25:27.273Z,99181.16
2018-11-28T10:27:55.565Z,99173.70
2018-11-28T10:30:23.970Z,99167.13
2018-11-28T10:32:51.897Z,99164.53
2018-11-28T10:35:19.553Z,99156.20
2018-11-28T10:37:47.110Z,99150.11
2018-11-28T10:40:17.320Z,99156.66
2018-11-28T10:42:45.249Z,99149.65
2018-11-28T10:45:13.662Z,99151.83
2018-11-28T10:47:41.219Z,99149.64
2018-11-28T10:50:10.539Z,99148.79
2018-11-28T10:52:38.710Z,99151.83
2018-11-28T10:55:07.304Z,99144.42
2018-11-28T10:57:34.978Z,99143.97
2018-11-28T11:00:02.484Z,99136.09
2018-11-28T11:02:35.526Z,99133.45
2018-11-28T11:05:08.474Z,99141.78
2018-11-28T11:08:44.182Z,99137.40
2018-11-28T11:11:17.092Z,99130.41
2018-11-28T11:13:49.730Z,99135.20
2018-11-28T11:16:22.726Z,99139.98
2018-11-28T11:18:50.392Z,99137.34
2018-11-28T11:21:17.981Z,99137.34
2018-11-28T11:23:45.543Z,99134.69
2018-11-28T11:26:13.083Z,99136.80
2018-11-28T11:28:40.639Z,99135.04
2018-11-28T11:31:08.200Z,99138.86
2018-11-28T11:33:35.745Z,99134.82
2018-11-28T11:36:03.362Z,99140.55
2018-11-28T11:38:30.870Z,99130.01
2018-11-28T11:40:58.500Z,99131.32
2018-11-28T11:43:26.139Z,99127.73
2018-11-28T11:45:53.773Z,99119.64
2018-11-28T11:48:21.360Z,99128.27
2018-11-28T11:50:48.904Z,99120.27
2018-11-28T11:53:16.454Z,99119.22
2018-11-28T11:55:44.375Z,99112.81
2018-11-28T11:58:12.001Z,99108.00
2018-11-28T12:00:40.460Z,99098.50
2018-11-28T12:03:08.839Z,99100.23
2018-11-28T12:05:36.385Z,99099.32
2018-11-28T12:08:04.004Z,99101.72
2018-11-28T12:10:31.771Z,99099.64
2018-11-28T12:12:59.428Z,99101.85
2018-11-28T12:15:26.966Z,99091.61
2018-11-28T12:17:54.861Z,99092.75
2018-11-28T12:20:23.469Z,99094.31
2018-11-28T12:22:51.025Z,99090.83
2018-11-28T12:25:18.669Z,99096.06
2018-11-28T12:27:46.289Z,99094.66
2018-11-28T12:30:15.012Z,99091.31
2018-11-28T12:32:43.072Z,99086.72
2018-11-28T12:35:11.563Z,99082.75
2018-11-28T12:37:39.644Z,99083.30
2018-11-28T12:40:10.182Z,99076.66
2018-11-28T12:42:37.946Z,99073.55
2018-11-28T12:45:08.697Z,99073.50
2018-11-28T12:47:36.386Z,99075.86
2018-11-28T12:50:04.714Z,99075.12
2018-11-28T12:52:32.348Z,99080.86
2018-11-28T12:55:00.821Z,99072.28
2018-11-28T12:57:28.526Z,99073.34
2018-11-28T12:59:56.105Z,99082.20
2018-11-28T13:02:23.711Z,99087.77
2018-11-28T13:04:51.245Z,99082.03
2018-11-28T13:07:18.773Z,99088.22
2018-11-28T13:09:46.460Z,99081.09
2018-11-28T13:12:14.031Z,99082.80
2018-11-28T13:14:41.584Z,99081.79
2018-11-28T13:17:09.356Z,99070.59
2018-11-28T13:19:37.047Z,99070.58
2018-11-28T13:22:04.911Z,99074.92
2018-11-28T13:24:32.467Z,99067.03
2018-11-28T13:27:00.117Z,99073.88
2018-11-28T13:29:27.874Z,99084.17
2018-11-28T13:31:55.407Z,99085.09
2018-11-28T13:34:23.083Z,99083.57
2018-11-28T13:36:50.644Z,99083.42
2018-11-28T13:39:18.406Z,99079.57
2018-11-28T13:41:45.977Z,99080.09
2018-11-28T13:44:13.563Z,99085.23
2018-11-28T13:46:41.306Z,99085.09
2018-11-28T13:49:09.044Z,99080.72
2018-11-28T13:51:36.891Z,99080.18
2018-11-28T13:54:20.790Z,99074.20
2018-11-28T13:56:58.329Z,99077.72
2018-11-28T13:58:59.896Z,99086.93
2018-11-28T14:01:27.442Z,99075.61
2018-11-28T14:03:55.004Z,99081.49
2018-11-28T14:06:22.524Z,99087.59
2018-11-28T14:08:50.198Z,99089.86
2018-11-28T14:11:17.965Z,99093.44
2018-11-28T14:13:45.775Z,99087.72
2018-11-28T14:16:13.342Z,99090.42
2018-11-28T14:18:41.001Z,99093.95
2018-11-28T14:21:08.862Z,99092.69
2018-11-28T14:23:36.534Z,99090.92
2018-11-28T14:26:04.084Z,99091.39
2018-11-28T14:28:31.685Z,99087.45
2018-11-28T14:30:59.290Z,99082.20
2018-11-28T14:33:26.884Z,99084.41
2018-11-28T14:35:54.381Z,99087.06
2018-11-28T14:38:21.912Z,99094.95
2018-11-28T14:40:49.466Z,99083.12
2018-11-28T14:43:17.002Z,99093.22
2018-11-28T14:45:44.674Z,99094.55
2018-11-28T14:48:12.251Z,99100.66
2018-11-28T14:50:39.812Z,99107.65
2018-11-28T14:53:07.374Z,99111.59
2018-11-28T14:55:36.534Z,99110.29
2018-11-28T14:58:04.093Z,99108.96
2018-11-28T15:00:32.127Z,99106.33
2018-11-28T15:03:17.325Z,99108.97
2018-11-28T15:07:53.329Z,99108.93
2018-11-28T15:10:22.706Z,99110.24
2018-11-28T15:12:50.450Z,99105.42
2018-11-28T15:15:18.101Z,99107.14
2018-11-28T15:17:45.673Z,99106.25
2018-11-28T15:20:13.185Z,99113.67
2018-11-28T15:22:41.834Z,99110.16
2018-11-28T15:25:09.774Z,99103.61
2018-11-28T15:27:37.326Z,99101.87
2018-11-28T15:30:05.289Z,99099.20
2018-11-28T15:32:32.896Z,99096.16
2018-11-28T15:35:00.457Z,99092.19
2018-11-28T15:37:28.042Z,99096.58
2018-11-28T15:39:56.085Z,99103.11
2018-11-28T15:42:23.243Z,99104.02
2018-11-28T15:44:50.829Z,99113.12
2018-11-28T15:47:18.344Z,99106.98
2018-11-28T15:49:45.838Z,99103.94
2018-11-28T15:52:13.467Z,99105.19
2018-11-28T15:54:41.010Z,99096.91
2018-11-28T15:57:08.531Z,99099.39
2018-11-28T15:59:36.073Z,99094.16
2018-11-28T16:02:03.670Z,99092.27
2018-11-28T16:04:31.307Z,99097.16
2018-11-28T16:06:58.813Z,99094.52
2018-11-28T16:09:31.946Z,99096.63
2018-11-28T16:11:59.341Z,99098.34
2018-11-28T16:14:26.853Z,99097.06
2018-11-28T16:16:54.474Z,99095.17
2018-11-28T16:19:22.087Z,99097.85
2018-11-28T16:21:49.674Z,99094.80
2018-11-28T16:24:17.206Z,99103.55
2018-11-28T16:26:44.732Z,99116.12
2018-11-28T16:29:12.275Z,99109.23
2018-11-28T16:31:39.967Z,99104.85
2018-11-28T16:34:07.481Z,99101.35
2018-11-28T16:36:35.024Z,99106.58
2018-11-28T16:39:02.584Z,99106.05
2018-11-28T16:41:30.122Z,99109.97
2018-11-28T16:43:57.681Z,99110.81
2018-11-28T16:46:25.237Z,99108.22
2018-11-28T16:48:52.854Z,99117.31
2018-11-28T16:51:20.457Z,99119.47
2018-11-28T16:53:48.029Z,99119.02
2018-11-28T16:56:15.525Z,99115.48
2018-11-28T16:58:43.096Z,99118.94
2018-11-28T17:01:10.701Z,99118.41
2018-11-28T17:03:38.256Z,99111.41
2018-11-28T17:06:05.878Z,99122.23
2018-11-28T17:08:33.548Z,99122.69
2018-11-28T17:11:01.089Z,99123.15
2018-11-28T17:13:28.629Z,99122.53
2018-11-28T17:15:56.129Z,99118.61
2018-11-28T17:18:23.664Z,99105.30
2018-11-28T17:20:51.239Z,99103.73
2018-11-28T17:23:18.813Z,99093.56
2018-11-28T17:25:46.345Z,99094.64
2018-11-28T17:28:13.948Z,99088.86
2018-11-28T17:30:41.722Z,99104.07
2018-11-28T17:33:09.211Z,99104.02
2018-11-28T17:35:36.831Z,99103.61
2018-11-28T17:38:04.415Z,99104.88
2018-11-28T17:40:32.038Z,99118.62
2018-11-28T17:42:59.712Z,99117.41
2018-11-28T17:45:27.685Z,99110.78
2018-11-28T17:47:55.252Z,99119.15
2018-11-28T17:50:23.301Z,99118.11
2018-11-28T17:52:57.894Z,99123.30
2018-11-28T17:55:25.995Z,99120.19
2018-11-28T17:57:54.273Z,99122.06
2018-11-28T18:00:22.429Z,99132.95
2018-11-28T18:02:50.077Z,99135.45
2018-11-28T18:05:17.619Z,99133.27
2018-11-28T18:07:45.180Z,99135.84
2018-11-28T18:10:16.339Z,99143.06
2018-11-28T18:12:49.602Z,99143.46
2018-11-28T18:15:17.197Z,99144.14
2018-11-28T18:17:44.881Z,99146.70
2018-11-28T18:20:12.464Z,99142.52
2018-11-28T18:22:40.029Z,99139.31
2018-11-28T18:25:08.605Z,99149.30
2018-11-28T18:27:36.217Z,99149.66
2018-11-28T18:30:03.804Z,99144.44
2018-11-28T18:32:31.458Z,99148.91
2018-11-28T18:34:59.012Z,99151.88
2018-11-28T18:37:26.742Z,99148.83
2018-11-28T18:39:54.530Z,99154.34
2018-11-28T18:42:22.202Z,99147.09
2018-11-28T18:44:49.768Z,99144.52
2018-11-28T18:47:17.387Z,99150.56
2018-11-28T18:49:45.195Z,99144.12
2018-11-28T18:52:12.967Z,99138.09
2018-11-28T18:54:40.530Z,99143.56
2018-11-28T18:57:08.090Z,99134.66
2018-11-28T18:59:35.678Z,99134.57
2018-11-28T19:02:03.276Z,99143.61
2018-11-28T19:04:31.041Z,99150.17
2018-11-28T19:06:58.640Z,99143.66
2018-11-28T19:09:31.631Z,99144.96
2018-11-28T19:11:59.255Z,99153.55
2018-11-28T19:14:26.941Z,99147.91
2018-11-28T19:16:54.648Z,99143.25
2018-11-28T19:19:22.389Z,99141.68
2018-11-28T19:21:49.912Z,99150.80
2018-11-28T19:24:17.517Z,99149.94
2018-11-28T19:26:45.061Z,99149.16
2018-11-28T19:29:12.737Z,99146.65
2018-11-28T19:31:40.256Z,99146.65
2018-11-28T19:34:08.134Z,99152.77
2018-11-28T19:36:35.812Z,99151.04
2018-11-28T19:39:03.816Z,99153.69
2018-11-28T19:41:31.608Z,99155.82
2018-11-28T19:43:59.196Z,99156.69
2018-11-28T19:46:26.907Z,99154.42
2018-11-28T19:48:54.613Z,99150.94
2018-11-28T19:51:22.203Z,99146.65
2018-11-28T19:53:49.920Z,99138.64
2018-11-28T19:56:18.085Z,99140.87
2018-11-28T19:58:45.721Z,99139.70
2018-11-28T20:01:13.646Z,99148.00
2018-11-28T20:03:41.346Z,99151.56
2018-11-28T20:06:09.685Z,99158.91
2018-11-28T20:08:37.357Z,99157.83
2018-11-28T20:11:05.257Z,99149.66
2018-11-28T20:13:32.750Z,99158.78
2018-11-28T20:16:00.449Z,99161.39
2018-11-28T20:18:28.027Z,99154.60
2018-11-28T20:20:55.676Z,99162.08
2018-11-28T20:23:23.212Z,99164.30
2018-11-28T20:25:51.064Z,99170.51
2018-11-28T20:28:18.947Z,99156.23
2018-11-28T20:30:47.947Z,99169.68
2018-11-28T20:33:16.422Z,99162.92
2018-11-28T20:35:44.634Z,99163.08
2018-11-28T20:38:17.973Z,99161.70
2018-11-28T20:40:45.728Z,99159.20
2018-11-28T20:43:13.486Z,99153.34
2018-11-28T20:45:41.263Z,99158.57
2018-11-28T20:48:09.212Z,99155.64
2018-11-28T20:50:36.867Z,99151.37
2018-11-28T20:53:06.726Z,99157.38
2018-11-28T20:55:34.465Z,99156.51
2018-11-28T20:58:02.206Z,99147.41
2018-11-28T21:00:29.861Z,99157.53
2018-11-28T21:02:57.528Z,99155.43
2018-11-28T21:05:25.237Z,99159.31
2018-11-28T21:07:52.923Z,99162.39
2018-11-28T21:10:26.123Z,99161.13
2018-11-28T21:12:53.966Z,99161.13
2018-11-28T21:15:21.604Z,99159.70
2018-11-28T21:17:49.465Z,99153.72
2018-11-28T21:20:17.554Z,99148.06
2018-11-28T21:22:46.821Z,99143.32
2018-11-28T21:25:14.427Z,99139.36
2018-11-28T21:27:42.164Z,99136.06
2018-11-28T21:30:10.371Z,99126.06
2018-11-28T21:32:38.384Z,99115.25
2018-11-28T21:35:07.649Z,99117.47
2018-11-28T21:37:35.197Z,99120.52
2018-11-28T21:40:03.219Z,99114.24
2018-11-28T21:42:30.960Z,99123.59
2018-11-28T21:44:58.563Z,99125.33
2018-11-28T21:47:26.282Z,99122.62
2018-11-28T21:49:54.506Z,99134.36
2018-11-28T21:52:22.183Z,99132.22
2018-11-28T21:54:49.992Z,99134.41
2018-11-28T21:57:18.747Z,99126.67
2018-11-28T21:59:46.319Z,99122.77
2018-11-28T22:02:13.883Z,99116.20
2018-11-28T22:04:41.426Z,99111.78
2018-11-28T22:07:09.403Z,99104.75
2018-11-28T22:09:36.997Z,99092.23
2018-11-28T22:12:04.577Z,99090.96
2018-11-28T22:14:32.198Z,99092.27
2018-11-28T22:17:00.820Z,99099.95
2018-11-28T22:19:29.858Z,99107.03
2018-11-28T22:21:57.558Z,99110.11
2018-11-28T22:24:25.188Z,99109.34
2018-11-28T22:26:53.380Z,99114.59
2018-11-28T22:29:21.080Z,99109.27
2018-11-28T22:31:48.608Z,99108.77
2018-11-28T22:34:16.204Z,99105.42
2018-11-28T22:36:43.779Z,99112.35
2018-11-28T22:39:11.442Z,99107.67
2018-11-28T22:41:39.089Z,99106.03
2018-11-28T22:44:06.664Z,99110.72
2018-11-28T22:46:34.566Z,99105.56
2018-11-28T22:49:02.242Z,99094.37
2018-11-28T22:51:29.954Z,99091.36
2018-11-28T22:53:57.520Z,99088.31
2018-11-28T22:56:25.110Z,99082.16
2018-11-28T22:58:52.614Z,99074.38
2018-11-28T23:01:25.608Z,99077.11
2018-11-28T23:03:53.132Z,99073.51
2018-11-28T23:06:20.669Z,99070.09
2018-11-28T23:08:48.227Z,99075.34
2018-11-28T23:11:15.907Z,99067.91
2018-11-28T23:13:43.445Z,99064.92
2018-11-28T23:16:11.088Z,99060.16
2018-11-28T23:18:38.848Z,99057.63
2018-11-28T23:21:06.529Z,99061.14
2018-11-28T23:23:34.230Z,99055.92
2018-11-28T23:26:01.733Z,99049.77
2018-11-28T23:28:29.597Z,99048.29
2018-11-28T23:30:57.230Z,99046.95
2018-11-28T23:33:24.960Z,99042.69
2018-11-28T23:35:52.486Z,99037.47
2018-11-28T23:38:20.064Z,99036.27
2018-11-28T23:40:47.605Z,99038.88
2018-11-28T23:43:15.396Z,99046.83
2018-11-28T23:45:43.121Z,99045.88
2018-11-28T23:48:10.764Z,99039.81
2018-11-28T23:50:38.501Z,99041.11
2018-11-28T23:53:06.210Z,99033.25
2018-11-28T23:55:33.762Z,99032.44
2018-11-28T23:58:01.398Z,99025.48
